createdAt,value
2023-04-17T00:02:46.498Z,99630.14
2023-04-17T00:06:44.237Z,99629.73
2023-04-17T00:10:42.225Z,99626.66
2023-04-17T00:14:40.164Z,99618.89
2023-04-17T00:18:38.282Z,99615.13
2023-04-17T00:22:36.200Z,99612.04
2023-04-17T00:26:34.239Z,99612.53
2023-04-17T00:30:32.177Z,99609.08
2023-04-17T00:34:30.244Z,99606.30
2023-04-17T00:38:28.272Z,99606.63
2023-04-17T00:42:26.255Z,99607.96
2023-04-17T00:46:24.256Z,99611.38
2023-04-17T00:50:22.210Z,99609.08
2023-04-17T00:54:20.332Z,99604.91
2023-04-17T00:58:18.283Z,99610.98
2023-04-17T01:02:16.167Z,99614.37
2023-04-17T01:06:14.284Z,99611.42
2023-04-17T01:10:12.121Z,99608.59
2023-04-17T01:14:10.161Z,99607.34
2023-04-17T01:18:08.231Z,99609.64
2023-04-17T01:22:06.231Z,99606.52
2023-04-17T01:26:04.127Z,99607.69
2023-04-17T01:30:02.150Z,99603.60
2023-04-17T01:34:07.140Z,99608.12
2023-04-17T01:38:05.141Z,99614.17
2023-04-17T01:42:03.091Z,99612.30
2023-04-17T01:46:01.227Z,99618.83
2023-04-17T01:49:59.100Z,99616.27
2023-04-17T01:53:57.084Z,99615.95
2023-04-17T01:57:55.065Z,99617.52
2023-04-17T02:01:53.306Z,99622.29
2023-04-17T02:05:51.016Z,99621.12
2023-04-17T02:09:49.092Z,99624.52
2023-04-17T02:13:47.138Z,99623.04
2023-04-17T02:17:45.103Z,99622.67
2023-04-17T02:21:43.089Z,99629.42
2023-04-17T02:25:41.051Z,99628.64
2023-04-17T02:29:39.009Z,99628.17
2023-04-17T02:33:38.049Z,99627.08
2023-04-17T02:37:36.039Z,99632.95
2023-04-17T02:41:34.117Z,99635.19
2023-04-17T02:45:31.958Z,99638.11
2023-04-17T02:49:30.059Z,99632.71
2023-04-17T02:53:28.061Z,99634.65
2023-04-17T02:57:26.032Z,99635.33
2023-04-17T03:01:24.053Z,99640.05
2023-04-17T03:05:21.991Z,99636.34
2023-04-17T03:09:20.940Z,99637.50
2023-04-17T03:13:19.002Z,99637.48
2023-04-17T03:17:17.053Z,99634.98
2023-04-17T03:21:14.982Z,99639.61
2023-04-17T03:25:13.010Z,99635.98
2023-04-17T03:29:15.960Z,99632.55
2023-04-17T03:33:13.987Z,99635.52
2023-04-17T03:37:11.952Z,99637.06
2023-04-17T03:41:09.928Z,99637.77
2023-04-17T03:45:07.950Z,99641.16
2023-04-17T03:49:05.904Z,99648.92
2023-04-17T03:53:03.987Z,99653.00
2023-04-17T03:57:02.992Z,99655.11
2023-04-17T04:01:02.012Z,99658.11
2023-04-17T04:05:01.040Z,99657.71
2023-04-17T04:08:58.899Z,99659.55
2023-04-17T04:12:56.952Z,99665.16
2023-04-17T04:16:55.076Z,99667.42
2023-04-17T04:20:52.931Z,99668.85
2023-04-17T04:24:54.907Z,99672.67
2023-04-17T04:29:06.876Z,99674.33
2023-04-17T04:33:26.983Z,99675.02
2023-04-17T04:37:28.956Z,99680.21
2023-04-17T04:41:33.907Z,99680.45
2023-04-17T04:45:31.817Z,99680.52
2023-04-17T04:49:29.849Z,99685.07
2023-04-17T04:53:27.841Z,99683.27
2023-04-17T04:57:25.852Z,99693.38
2023-04-17T05:01:24.846Z,99689.34
2023-04-17T05:05:22.833Z,99690.16
2023-04-17T05:09:20.782Z,99696.52
2023-04-17T05:13:19.848Z,99697.74
2023-04-17T05:17:18.823Z,99699.75
2023-04-17T05:21:16.863Z,99693.33
2023-04-17T05:25:14.848Z,99691.77
2023-04-17T05:29:13.090Z,99688.77
2023-04-17T05:33:10.812Z,99683.48
2023-04-17T05:37:13.772Z,99688.94
2023-04-17T05:41:13.738Z,99694.05
2023-04-17T05:45:11.771Z,99695.73
2023-04-17T05:49:09.918Z,99692.39
2023-04-17T05:53:07.869Z,99693.45
2023-04-17T05:57:23.742Z,99700.77
2023-04-17T06:01:06.088Z,99700.36
2023-04-17T06:04:31.343Z,99705.52
2023-04-17T06:07:55.563Z,99710.77
2023-04-17T06:11:19.344Z,99715.23
2023-04-17T06:14:44.389Z,99713.74
2023-04-17T06:18:08.588Z,99716.89
2023-04-17T06:21:33.664Z,99717.06
2023-04-17T06:24:57.781Z,99719.33
2023-04-17T06:28:21.678Z,99718.64
2023-04-17T06:31:47.742Z,99721.48
2023-04-17T06:35:13.258Z,99720.97
2023-04-17T06:38:42.058Z,99723.69
2023-04-17T06:42:09.167Z,99726.17
2023-04-17T06:45:36.114Z,99728.73
2023-04-17T06:49:03.246Z,99731.95
2023-04-17T06:52:27.612Z,99737.74
2023-04-17T06:55:53.944Z,99737.75
2023-04-17T06:59:19.875Z,99740.58
2023-04-17T07:02:44.139Z,99741.40
2023-04-17T07:06:09.411Z,99741.86
2023-04-17T07:09:33.557Z,99739.15
2023-04-17T07:12:57.467Z,99738.92
2023-04-17T07:16:23.026Z,99742.04
2023-04-17T07:19:47.139Z,99744.19
2023-04-17T07:23:11.236Z,99741.89
2023-04-17T07:26:35.196Z,99745.47
2023-04-17T07:29:59.042Z,99750.47
2023-04-17T07:33:22.965Z,99752.54
2023-04-17T07:36:47.613Z,99757.44
2023-04-17T07:40:11.946Z,99758.54
2023-04-17T07:43:35.826Z,99761.05
2023-04-17T07:46:59.575Z,99764.95
2023-04-17T07:50:23.919Z,99764.60
2023-04-17T07:53:47.886Z,99770.98
2023-04-17T07:57:11.973Z,99774.36
2023-04-17T08:00:35.900Z,99778.50
2023-04-17T08:04:00.114Z,99774.19
2023-04-17T08:07:24.431Z,99773.13
2023-04-17T08:10:48.200Z,99780.55
2023-04-17T08:14:12.697Z,99788.36
2023-04-17T08:17:36.839Z,99791.80
2023-04-17T08:21:01.714Z,99797.09
2023-04-17T08:24:25.972Z,99797.06
2023-04-17T08:27:49.862Z,99802.41
2023-04-17T08:31:13.994Z,99804.59
2023-04-17T08:34:38.935Z,99802.85
2023-04-17T08:38:03.034Z,99801.59
2023-04-17T08:41:34.331Z,99804.77
2023-04-17T08:45:02.157Z,99806.85
2023-04-17T08:48:26.129Z,99811.55
2023-04-17T08:51:50.109Z,99815.59
2023-04-17T08:55:19.991Z,99814.03
2023-04-17T08:58:44.010Z,99815.87
2023-04-17T09:02:09.381Z,99821.01
2023-04-17T09:05:34.456Z,99817.04
2023-04-17T09:09:01.729Z,99815.64
2023-04-17T09:12:27.328Z,99817.60
2023-04-17T09:16:05.164Z,99819.92
2023-04-17T09:19:29.102Z,99818.66
2023-04-17T09:23:04.376Z,99814.77
2023-04-17T09:26:32.118Z,99816.48
2023-04-17T09:30:00.199Z,99816.31
2023-04-17T09:33:24.153Z,99814.02
2023-04-17T09:36:48.077Z,99820.42
2023-04-17T09:40:12.389Z,99820.45
2023-04-17T09:43:43.377Z,99819.98
2023-04-17T09:47:08.887Z,99822.70
2023-04-17T09:50:33.515Z,99823.81
2023-04-17T09:54:00.173Z,99821.27
2023-04-17T09:57:24.095Z,99819.81
2023-04-17T10:00:48.718Z,99821.50
2023-04-17T10:04:13.261Z,99825.58
2023-04-17T10:07:39.328Z,99822.23
2023-04-17T10:11:08.453Z,99820.02
2023-04-17T10:14:36.469Z,99818.52
2023-04-17T10:18:28.026Z,99821.86
2023-04-17T10:22:18.073Z,99825.14
2023-04-17T10:25:41.928Z,99828.52
2023-04-17T10:29:06.137Z,99826.41
2023-04-17T10:32:31.630Z,99828.23
2023-04-17T10:35:56.451Z,99831.58
2023-04-17T10:39:20.486Z,99830.55
2023-04-17T10:43:07.883Z,99833.40
2023-04-17T10:46:31.758Z,99829.95
2023-04-17T10:49:58.441Z,99829.90
2023-04-17T10:53:42.435Z,99832.69
2023-04-17T10:57:11.128Z,99830.22
2023-04-17T11:00:38.231Z,99825.39
2023-04-17T11:04:02.400Z,99825.99
2023-04-17T11:07:27.570Z,99827.12
2023-04-17T11:10:56.872Z,99830.61
2023-04-17T11:14:23.127Z,99822.20
2023-04-17T11:17:48.689Z,99830.49
2023-04-17T11:21:16.670Z,99826.52
2023-04-17T11:24:40.587Z,99829.30
2023-04-17T11:28:07.478Z,99835.00
2023-04-17T11:31:31.747Z,99834.77
2023-04-17T11:34:56.714Z,99835.14
2023-04-17T11:38:23.302Z,99833.70
2023-04-17T11:41:47.603Z,99825.86
2023-04-17T11:45:12.288Z,99829.71
2023-04-17T11:48:36.153Z,99832.88
2023-04-17T11:52:05.614Z,99834.84
2023-04-17T11:55:31.657Z,99830.98
2023-04-17T11:58:57.943Z,99833.46
2023-04-17T12:02:34.149Z,99828.45
2023-04-17T12:06:02.730Z,99827.49
2023-04-17T12:09:32.083Z,99829.44
2023-04-17T12:12:56.692Z,99827.77
2023-04-17T12:16:20.809Z,99829.86
2023-04-17T12:19:45.370Z,99832.00
2023-04-17T12:23:09.448Z,99835.16
2023-04-17T12:26:33.303Z,99837.02
2023-04-17T12:29:57.116Z,99835.36
2023-04-17T12:33:20.996Z,99835.68
2023-04-17T12:36:44.871Z,99835.67
2023-04-17T12:40:11.969Z,99836.48
2023-04-17T12:43:35.867Z,99836.30
2023-04-17T12:46:59.734Z,99841.70
2023-04-17T12:50:23.538Z,99837.56
2023-04-17T12:53:47.904Z,99839.27
2023-04-17T12:57:11.722Z,99839.23
2023-04-17T13:00:36.379Z,99836.83
2023-04-17T13:04:00.621Z,99830.48
2023-04-17T13:07:24.895Z,99827.41
2023-04-17T13:10:48.736Z,99832.30
2023-04-17T13:14:13.284Z,99837.11
2023-04-17T13:17:37.419Z,99834.10
2023-04-17T13:21:01.308Z,99831.89
2023-04-17T13:24:25.408Z,99827.96
2023-04-17T13:27:49.502Z,99830.98
2023-04-17T13:31:34.255Z,99835.20
2023-04-17T13:35:32.224Z,99832.73
2023-04-17T13:39:30.205Z,99833.26
2023-04-17T13:43:28.204Z,99836.91
2023-04-17T13:47:27.290Z,99829.19
2023-04-17T13:51:25.288Z,99835.28
2023-04-17T13:55:24.197Z,99830.90
2023-04-17T13:59:22.260Z,99826.37
2023-04-17T14:03:20.392Z,99824.36
2023-04-17T14:07:25.197Z,99823.04
2023-04-17T14:11:24.203Z,99826.92
2023-04-17T14:15:22.229Z,99822.44
2023-04-17T14:19:20.354Z,99817.94
2023-04-17T14:23:19.178Z,99815.90
2023-04-17T14:27:17.157Z,99812.08
2023-04-17T14:31:15.193Z,99813.41
2023-04-17T14:35:13.209Z,99816.21
2023-04-17T14:39:11.598Z,99808.20
2023-04-17T14:43:09.210Z,99811.38
2023-04-17T14:47:07.222Z,99812.30
2023-04-17T14:51:06.167Z,99809.03
2023-04-17T14:55:04.220Z,99809.08
2023-04-17T14:59:02.236Z,99810.64
2023-04-17T15:03:00.335Z,99811.13
2023-04-17T15:06:58.154Z,99806.48
2023-04-17T15:10:56.234Z,99814.17
2023-04-17T15:14:54.108Z,99817.83
2023-04-17T15:18:52.194Z,99819.66
2023-04-17T15:22:50.134Z,99813.73
2023-04-17T15:26:48.072Z,99811.77
2023-04-17T15:30:46.128Z,99816.78
2023-04-17T15:34:44.111Z,99814.77
2023-04-17T15:38:42.115Z,99812.70
2023-04-17T15:42:40.081Z,99817.49
2023-04-17T15:46:38.111Z,99821.49
2023-04-17T15:50:36.041Z,99818.89
2023-04-17T15:54:34.103Z,99821.23
2023-04-17T15:58:32.199Z,99824.67
2023-04-17T16:02:30.124Z,99825.00
2023-04-17T16:06:28.042Z,99822.48
2023-04-17T16:10:29.025Z,99825.48
2023-04-17T16:14:27.085Z,99825.97
2023-04-17T16:18:24.983Z,99826.63
2023-04-17T16:22:23.022Z,99832.98
2023-04-17T16:26:22.033Z,99838.81
2023-04-17T16:30:21.019Z,99843.46
2023-04-17T16:34:21.009Z,99840.36
2023-04-17T16:38:18.967Z,99845.66
2023-04-17T16:42:16.949Z,99847.60
2023-04-17T16:46:23.913Z,99850.13
2023-04-17T16:50:25.976Z,99854.94
2023-04-17T16:54:25.081Z,99854.76
2023-04-17T16:58:22.963Z,99865.27
2023-04-17T17:02:23.505Z,99866.80
2023-04-17T17:06:21.052Z,99866.20
2023-04-17T17:10:18.952Z,99867.59
2023-04-17T17:14:16.957Z,99873.67
2023-04-17T17:18:14.933Z,99870.06
2023-04-17T17:22:12.985Z,99874.45
2023-04-17T17:26:10.995Z,99869.80
2023-04-17T17:30:09.906Z,99880.59
2023-04-17T17:38:13.908Z,99888.02
2023-04-17T17:42:15.374Z,99890.24
2023-04-17T17:46:12.969Z,99894.23
2023-04-17T17:50:10.918Z,99900.27
2023-04-17T17:54:08.901Z,99904.33
2023-04-17T17:58:06.986Z,99903.48
2023-04-17T18:02:05.272Z,99908.77
2023-04-17T18:06:02.966Z,99909.48
2023-04-17T18:10:00.882Z,99912.14
2023-04-17T18:13:58.867Z,99911.02
2023-04-17T18:17:56.945Z,99915.70
2023-04-17T18:21:54.960Z,99916.93
2023-04-17T18:25:52.935Z,99920.20
2023-04-17T18:29:50.835Z,99923.30
2023-04-17T18:33:48.829Z,99923.85
2023-04-17T18:37:49.993Z,99924.98
2023-04-17T18:41:47.842Z,99923.30
2023-04-17T18:45:45.968Z,99922.06
2023-04-17T18:49:43.835Z,99914.12
2023-04-17T18:53:42.894Z,99917.88
2023-04-17T18:57:40.869Z,99918.95
2023-04-17T19:01:38.819Z,99924.20
2023-04-17T19:05:37.009Z,99923.17
2023-04-17T19:09:34.907Z,99923.91
2023-04-17T19:13:32.880Z,99918.61
2023-04-17T19:17:30.900Z,99922.76
2023-04-17T19:21:28.816Z,99920.67
2023-04-17T19:25:27.840Z,99922.42
2023-04-17T19:29:25.841Z,99926.04
2023-04-17T19:33:23.772Z,99926.16
2023-04-17T19:37:21.761Z,99925.80
2023-04-17T19:41:28.864Z,99922.23
2023-04-17T19:45:27.818Z,99925.66
2023-04-17T19:49:25.847Z,99926.31
2023-04-17T19:53:23.727Z,99922.52
2023-04-17T19:57:22.745Z,99923.73
2023-04-17T20:01:20.823Z,99922.23
2023-04-17T20:05:18.797Z,99920.69
2023-04-17T20:09:18.109Z,99915.51
2023-04-17T20:13:15.753Z,99913.08
2023-04-17T20:17:13.744Z,99914.30
2023-04-17T20:21:12.860Z,99904.77
2023-04-17T20:25:10.716Z,99908.88
2023-04-17T20:29:08.722Z,99904.98
2023-04-17T20:33:06.860Z,99904.20
2023-04-17T20:37:04.775Z,99906.79
2023-04-17T20:41:02.747Z,99904.73
2023-04-17T20:45:01.866Z,99911.49
2023-04-17T20:48:59.738Z,99910.23
2023-04-17T20:52:57.696Z,99917.16
2023-04-17T20:56:55.690Z,99911.84
2023-04-17T21:01:00.838Z,99911.55
2023-04-17T21:04:59.753Z,99915.35
2023-04-17T21:08:57.738Z,99910.83
2023-04-17T21:12:55.736Z,99915.12
2023-04-17T21:16:53.677Z,99909.85
2023-04-17T21:20:54.612Z,99913.66
2023-04-17T21:24:52.709Z,99914.78
2023-04-17T21:28:53.656Z,99919.65
2023-04-17T21:32:51.772Z,99917.25
2023-04-17T21:36:49.626Z,99917.96
2023-04-17T21:40:51.324Z,99909.27
2023-04-17T21:44:49.582Z,99906.82
2023-04-17T21:48:47.752Z,99909.17
2023-04-17T21:52:45.574Z,99913.21
2023-04-17T21:56:43.613Z,99913.36
2023-04-17T22:00:41.700Z,99917.91
2023-04-17T22:04:41.599Z,99918.48
2023-04-17T22:08:39.557Z,99915.35
2023-04-17T22:12:37.579Z,99913.95
2023-04-17T22:16:35.548Z,99918.59
2023-04-17T22:20:34.576Z,99916.48
2023-04-17T22:24:33.694Z,99913.52
2023-04-17T22:28:32.757Z,99913.13
2023-04-17T22:32:30.557Z,99911.14
2023-04-17T22:36:29.540Z,99909.08
2023-04-17T22:40:27.615Z,99905.78
2023-04-17T22:44:25.609Z,99908.95
2023-04-17T22:48:24.639Z,99907.67
2023-04-17T22:52:22.676Z,99903.58
2023-04-17T22:56:22.502Z,99902.70
2023-04-17T23:00:22.539Z,99899.79
2023-04-17T23:04:20.610Z,99899.20
2023-04-17T23:08:18.480Z,99898.56
2023-04-17T23:12:16.457Z,99898.10
2023-04-17T23:16:15.991Z,99892.25
2023-04-17T23:20:15.592Z,99893.82
2023-04-17T23:24:13.670Z,99891.66
2023-04-17T23:28:11.446Z,99886.27
2023-04-17T23:32:11.472Z,99888.45
2023-04-17T23:36:09.479Z,99888.19
2023-04-17T23:40:07.530Z,99896.17
2023-04-17T23:44:05.432Z,99893.98
2023-04-17T23:48:03.494Z,99895.08
2023-04-17T23:52:01.607Z,99893.36
2023-04-17T23:55:59.577Z,99887.04
2023-04-17T23:59:58.451Z,99890.21
